Time;durP1;ratioP1;P1;durP2;ratioP2;P2;SDS_P1;SDS_P2;PMS_P1;PMS_P2;Temp;Humidity;BMP_temperature;BMP_pressure;BME280_temperature;BME280_humidity;BME280_pressure;Samples;Min_cycle;Max_cycle;Signal;HPM_P1;HPM_P2
2022/10/26 00:00:29;;;;;;;8.27;4.30;;;13.40;99.90;;;;;;5072063;28;20043;-83
2022/10/26 00:02:55;;;;;;;8.70;4.57;;;13.40;99.90;;;;;;5075895;28;20032;-84
2022/10/26 00:05:22;;;;;;;12.25;4.25;;;13.30;99.90;;;;;;5076516;28;20036;-84
2022/10/26 00:07:48;;;;;;;7.32;4.45;;;13.30;99.90;;;;;;5075435;28;20029;-84
2022/10/26 00:10:14;;;;;;;8.20;4.20;;;13.30;99.90;;;;;;5057914;28;20382;-84
2022/10/26 00:12:40;;;;;;;9.32;4.97;;;13.20;99.90;;;;;;5075429;28;20020;-84
2022/10/26 00:15:07;;;;;;;7.32;4.80;;;13.20;99.90;;;;;;5075242;28;20040;-83
2022/10/26 00:17:32;;;;;;;9.63;4.40;;;13.20;99.90;;;;;;5074296;28;20029;-83
2022/10/26 00:19:59;;;;;;;11.55;4.70;;;13.20;99.90;;;;;;5074747;28;20388;-82
2022/10/26 00:22:25;;;;;;;8.50;4.25;;;13.10;99.90;;;;;;5074924;28;20033;-80
2022/10/26 00:24:51;;;;;;;10.80;4.57;;;13.10;99.90;;;;;;5074516;28;20060;-83
2022/10/26 00:27:17;;;;;;;10.75;4.82;;;13.10;99.90;;;;;;5074704;28;20050;-83
2022/10/26 00:29:43;;;;;;;9.77;4.80;;;13.10;99.90;;;;;;5074142;28;20097;-83
2022/10/26 00:34:53;;;;;;;9.20;4.82;;;13.10;99.90;;;;;;5075097;28;20050;-83
2022/10/26 00:37:18;;;;;;;8.27;4.30;;;13.00;99.90;;;;;;5066610;28;20411;-83
2022/10/26 00:39:44;;;;;;;10.88;4.25;;;13.00;99.90;;;;;;5074040;28;20108;-83
2022/10/26 00:42:18;;;;;;;7.00;4.38;;;13.00;99.90;;;;;;5074791;28;20052;-83
2022/10/26 00:44:47;;;;;;;10.68;4.72;;;12.90;99.90;;;;;;5074349;28;20016;-83
2022/10/26 00:47:28;;;;;;;7.72;4.55;;;12.90;99.90;;;;;;5074613;28;20024;-83
2022/10/26 00:49:56;;;;;;;7.88;3.97;;;12.90;99.90;;;;;;5074530;28;20020;-82
2022/10/26 00:52:23;;;;;;;10.65;4.28;;;12.90;99.90;;;;;;5074555;28;20082;-82
2022/10/26 00:54:50;;;;;;;6.70;4.15;;;12.90;99.90;;;;;;5074073;28;20430;-83
2022/10/26 00:57:17;;;;;;;7.18;4.38;;;12.90;99.90;;;;;;5079668;28;20536;-83
2022/10/26 00:59:44;;;;;;;10.00;4.95;;;12.90;99.90;;;;;;5094383;28;20111;-83
2022/10/26 01:02:11;;;;;;;7.70;4.00;;;12.90;99.90;;;;;;5093781;28;20494;-83
2022/10/26 01:04:36;;;;;;;7.60;4.35;;;12.90;99.90;;;;;;5094102;28;20496;-83
2022/10/26 01:07:03;;;;;;;6.30;3.78;;;12.90;99.90;;;;;;5094771;28;20062;-83
2022/10/26 01:09:30;;;;;;;5.80;3.53;;;12.80;99.90;;;;;;5093862;28;20350;-80
2022/10/26 01:11:56;;;;;;;6.65;3.83;;;12.80;99.90;;;;;;5094427;28;20400;-81
2022/10/26 01:14:22;;;;;;;6.25;3.50;;;12.80;99.90;;;;;;5093058;28;20027;-83
2022/10/26 01:16:57;;;;;;;6.07;3.10;;;12.80;99.90;;;;;;5087776;28;20773;-83
2022/10/26 01:19:22;;;;;;;5.45;3.10;;;12.80;99.90;;;;;;5065931;28;20029;-83
2022/10/26 01:21:58;;;;;;;5.95;3.28;;;12.70;99.90;;;;;;5073945;28;20106;-83
2022/10/26 01:24:57;;;;;;;7.03;2.97;;;12.70;99.90;;;;;;5074233;28;20388;-84
2022/10/26 01:27:31;;;;;;;6.38;2.88;;;12.70;99.90;;;;;;5073491;28;20025;-82
2022/10/26 01:30:17;;;;;;;3.95;2.88;;;12.70;99.90;;;;;;5073670;28;20029;-83
2022/10/26 01:33:21;;;;;;;5.63;2.95;;;12.70;99.90;;;;;;5073146;28;20078;-84
2022/10/26 01:36:04;;;;;;;5.47;3.13;;;12.60;99.90;;;;;;5072866;28;20488;-83
2022/10/26 01:38:51;;;;;;;7.05;3.33;;;12.60;99.90;;;;;;5073252;28;20029;-82
2022/10/26 01:41:25;;;;;;;6.22;3.20;;;12.60;99.90;;;;;;5073199;28;20020;-84
2022/10/26 01:44:00;;;;;;;7.63;3.30;;;12.60;99.90;;;;;;5073194;28;20016;-84
2022/10/26 01:46:30;;;;;;;8.05;3.22;;;12.60;99.90;;;;;;5055815;28;20169;-84
2022/10/26 01:49:01;;;;;;;6.07;3.35;;;12.50;99.90;;;;;;5073315;28;20024;-84
2022/10/26 01:51:28;;;;;;;5.75;3.10;;;12.50;99.90;;;;;;5073828;28;20028;-84
2022/10/26 01:53:54;;;;;;;5.70;3.00;;;12.50;99.90;;;;;;5072638;28;20025;-84
2022/10/26 01:56:33;;;;;;;6.50;2.70;;;12.60;99.90;;;;;;5073097;28;20101;-84
2022/10/26 01:59:31;;;;;;;5.10;2.60;;;12.60;99.90;;;;;;5073345;28;20024;-84
2022/10/26 02:02:29;;;;;;;7.45;2.50;;;12.60;99.90;;;;;;5072799;28;20073;-83
2022/10/26 02:05:09;;;;;;;3.80;2.03;;;12.70;99.90;;;;;;5052026;28;20059;-83
2022/10/26 02:07:43;;;;;;;5.55;2.65;;;12.70;99.90;;;;;;5072029;28;20369;-83
2022/10/26 02:10:36;;;;;;;3.60;2.35;;;12.70;99.90;;;;;;5072346;28;20427;-83
2022/10/26 02:13:32;;;;;;;4.47;2.40;;;12.70;99.90;;;;;;5071939;28;20033;-84
2022/10/26 02:16:19;;;;;;;5.70;2.55;;;12.60;99.90;;;;;;5072320;28;20029;-83
2022/10/26 02:19:06;;;;;;;4.47;2.30;;;12.60;99.90;;;;;;5051882;28;20040;-82
2022/10/26 02:21:40;;;;;;;4.80;2.78;;;12.60;99.90;;;;;;5052401;28;20025;-80
2022/10/26 02:24:09;;;;;;;4.93;2.70;;;12.50;99.90;;;;;;5052239;28;20116;-83
2022/10/26 02:26:38;;;;;;;4.22;2.40;;;12.50;99.90;;;;;;5052602;28;20029;-84
2022/10/26 02:29:07;;;;;;;4.20;2.28;;;12.40;99.90;;;;;;5052543;28;20025;-84
2022/10/26 02:31:35;;;;;;;3.88;2.30;;;12.30;99.90;;;;;;5052345;28;20025;-81
2022/10/26 02:34:05;;;;;;;3.55;2.42;;;12.30;99.90;;;;;;5052730;28;20389;-83
2022/10/26 02:36:35;;;;;;;5.93;2.63;;;12.20;99.90;;;;;;5052747;28;20522;-84
2022/10/26 02:39:04;;;;;;;3.72;2.47;;;12.20;99.90;;;;;;5052761;28;20839;-83
2022/10/26 02:41:32;;;;;;;5.63;2.35;;;12.20;99.90;;;;;;5034811;28;20036;-84
2022/10/26 02:44:21;;;;;;;2.92;2.28;;;12.20;99.90;;;;;;5051908;28;20107;-83
2022/10/26 02:46:48;;;;;;;5.80;2.17;;;12.20;99.90;;;;;;5011173;28;20048;-83
2022/10/26 02:49:14;;;;;;;8.07;2.53;;;12.10;99.90;;;;;;5052667;28;20178;-82
2022/10/26 02:51:43;;;;;;;4.80;2.67;;;12.10;99.90;;;;;;5077309;28;20504;-82
2022/10/26 02:54:25;;;;;;;4.40;2.97;;;12.00;99.90;;;;;;5092578;28;20069;-83
2022/10/26 02:56:56;;;;;;;4.93;3.03;;;12.10;99.90;;;;;;5073557;28;20040;-82
2022/10/26 02:59:24;;;;;;;;;;;12.00;99.90;;;;;;5093260;28;20460;-83
2022/10/26 03:01:51;;;;;;;6.13;2.90;;;12.00;99.90;;;;;;5092121;28;20411;-82
2022/10/26 03:04:17;;;;;;;13.15;3.22;;;12.00;99.90;;;;;;5092842;28;20060;-83
2022/10/26 03:06:52;;;;;;;8.18;2.70;;;12.00;99.90;;;;;;5092323;28;20023;-83
2022/10/26 03:09:17;;;;;;;4.43;2.65;;;12.00;99.90;;;;;;5092540;28;20024;-83
2022/10/26 03:11:43;;;;;;;5.72;2.72;;;12.00;99.90;;;;;;5091622;28;20043;-83
2022/10/26 03:14:08;;;;;;;6.78;2.85;;;12.00;99.90;;;;;;5092493;28;20058;-83
2022/10/26 03:16:34;;;;;;;5.20;3.30;;;11.90;99.90;;;;;;5088875;28;20024;-83
2022/10/26 03:19:00;;;;;;;5.30;2.88;;;12.00;99.90;;;;;;5051665;28;20032;-83
2022/10/26 03:21:27;;;;;;;6.30;2.97;;;11.90;99.90;;;;;;5072021;28;20032;-83
2022/10/26 03:23:53;;;;;;;5.68;2.90;;;11.90;99.90;;;;;;5071956;28;20373;-84
2022/10/26 03:26:19;;;;;;;5.35;3.08;;;12.00;99.90;;;;;;5071924;28;20038;-83
2022/10/26 03:28:44;;;;;;;5.57;3.03;;;12.00;99.90;;;;;;5071547;28;20021;-83
2022/10/26 03:31:10;;;;;;;4.18;2.60;;;12.00;99.90;;;;;;5072009;28;20029;-83
2022/10/26 03:33:36;;;;;;;6.43;2.65;;;12.00;99.90;;;;;;5071347;28;20029;-81
2022/10/26 03:36:01;;;;;;;4.28;2.33;;;12.00;99.90;;;;;;5071735;28;20033;-83
2022/10/26 03:38:27;;;;;;;4.18;2.50;;;12.00;99.90;;;;;;5075745;28;20028;-84
2022/10/26 03:40:54;;;;;;;4.63;2.28;;;12.00;99.90;;;;;;5075279;28;20070;-83
2022/10/26 03:43:19;;;;;;;3.40;2.45;;;12.00;99.90;;;;;;5076029;28;20047;-84
2022/10/26 03:45:45;;;;;;;6.78;2.40;;;12.00;99.90;;;;;;5074651;28;20033;-83
2022/10/26 03:48:11;;;;;;;5.55;2.38;;;12.00;99.90;;;;;;5075595;28;20058;-82
2022/10/26 03:50:36;;;;;;;3.38;2.25;;;12.00;99.90;;;;;;5076416;28;20063;-82
2022/10/26 03:53:02;;;;;;;4.00;2.60;;;12.00;99.90;;;;;;5076135;28;20488;-82
2022/10/26 03:55:28;;;;;;;3.83;2.17;;;12.00;99.90;;;;;;5075245;28;20112;-83
2022/10/26 03:57:53;;;;;;;5.13;2.22;;;12.00;99.90;;;;;;5075667;28;20024;-83
2022/10/26 04:00:19;;;;;;;3.75;2.20;;;11.90;99.90;;;;;;5075541;28;20059;-83
2022/10/26 04:02:53;;;;;;;5.72;2.58;;;11.90;99.90;;;;;;5075203;28;20036;-82
2022/10/26 04:05:18;;;;;;;6.22;2.97;;;11.80;99.90;;;;;;5075902;28;20115;-83
2022/10/26 04:07:51;;;;;;;4.45;2.70;;;11.80;99.90;;;;;;5074842;28;20112;-82
2022/10/26 04:10:17;;;;;;;4.95;2.33;;;11.70;99.90;;;;;;5075583;28;20025;-83
2022/10/26 04:12:42;;;;;;;9.13;2.75;;;11.70;99.90;;;;;;5075397;28;20365;-83
2022/10/26 04:15:09;;;;;;;5.22;2.72;;;11.60;99.90;;;;;;5075523;28;20047;-83
2022/10/26 04:17:34;;;;;;;7.15;3.10;;;11.60;99.90;;;;;;5075377;28;20412;-83
2022/10/26 04:20:00;;;;;;;7.90;2.65;;;11.60;99.90;;;;;;5056983;28;20028;-82
2022/10/26 04:22:26;;;;;;;5.45;2.45;;;11.60;99.90;;;;;;5075315;28;20029;-83
2022/10/26 04:24:52;;;;;;;3.88;2.60;;;11.50;99.90;;;;;;5074922;28;20033;-83
2022/10/26 04:27:17;;;;;;;7.80;2.97;;;11.50;99.90;;;;;;5075522;28;20108;-84
2022/10/26 04:29:43;;;;;;;5.03;2.75;;;11.50;99.90;;;;;;5074817;28;20035;-82
2022/10/26 04:32:08;;;;;;;5.93;2.78;;;11.50;99.90;;;;;;5075228;28;20029;-82
2022/10/26 04:34:34;;;;;;;8.93;3.40;;;11.50;99.90;;;;;;5075177;28;20021;-83
2022/10/26 04:37:00;;;;;;;7.38;2.83;;;11.50;99.90;;;;;;5074723;28;20041;-82
2022/10/26 04:39:25;;;;;;;5.60;2.70;;;11.50;99.90;;;;;;5075055;28;20495;-84
2022/10/26 04:41:53;;;;;;;4.05;2.22;;;11.50;99.90;;;;;;5074544;28;20032;-83
2022/10/26 04:44:18;;;;;;;5.35;2.60;;;11.50;99.90;;;;;;5080867;28;20103;-83
2022/10/26 04:46:44;;;;;;;4.93;2.70;;;11.50;99.90;;;;;;5095518;28;20063;-81
2022/10/26 04:49:10;;;;;;;6.15;2.72;;;11.50;99.90;;;;;;5095621;28;20059;-83
2022/10/26 04:51:35;;;;;;;8.68;2.72;;;11.50;99.90;;;;;;5095900;28;20032;-83
2022/10/26 04:54:02;;;;;;;10.07;4.13;;;11.60;99.90;;;;;;5094522;28;20031;-83
2022/10/26 04:56:28;;;;;;;5.38;3.38;;;11.50;99.90;;;;;;5095137;28;20144;-83
2022/10/26 04:58:54;;;;;;;7.03;3.95;;;11.60;99.90;;;;;;5076580;28;20377;-84
2022/10/26 05:01:20;;;;;;;7.57;4.00;;;11.60;99.90;;;;;;5095438;28;20024;-83
2022/10/26 05:03:50;;;;;;;5.35;3.60;;;11.60;99.90;;;;;;5076478;28;20456;-82
2022/10/26 05:06:16;;;;;;;7.72;4.00;;;11.60;99.90;;;;;;5095299;28;20085;-83
2022/10/26 05:08:41;;;;;;;6.28;4.13;;;11.60;99.90;;;;;;5094822;28;20032;-83
2022/10/26 05:11:07;;;;;;;8.00;4.03;;;11.60;99.90;;;;;;5094567;28;20071;-83
2022/10/26 05:13:33;;;;;;;9.43;4.78;;;11.60;99.90;;;;;;5094429;28;20044;-83
2022/10/26 05:15:58;;;;;;;10.40;4.60;;;11.60;99.90;;;;;;5076030;28;20036;-83
2022/10/26 05:18:25;;;;;;;10.77;4.75;;;11.50;99.90;;;;;;5076302;28;20432;-83
2022/10/26 05:20:54;;;;;;;5.80;4.55;;;11.50;99.90;;;;;;5074336;28;20074;-83
2022/10/26 05:23:21;;;;;;;10.35;5.60;;;11.60;99.90;;;;;;5074328;28;20081;-84
2022/10/26 05:25:46;;;;;;;9.90;5.68;;;11.50;99.90;;;;;;5074336;28;20067;-82
2022/10/26 05:28:13;;;;;;;10.05;5.97;;;11.50;99.90;;;;;;5056371;28;20028;-84
2022/10/26 05:30:41;;;;;;;12.32;6.15;;;11.50;99.90;;;;;;5074292;28;20024;-84
2022/10/26 05:33:09;;;;;;;9.07;6.30;;;11.50;99.90;;;;;;5073506;28;20099;-84
2022/10/26 05:35:35;;;;;;;10.00;5.97;;;11.50;99.90;;;;;;5073907;28;20040;-83
2022/10/26 05:38:07;;;;;;;8.70;5.95;;;11.50;99.90;;;;;;5073574;28;20044;-84
2022/10/26 05:40:33;;;;;;;9.63;6.60;;;11.40;99.90;;;;;;5074297;28;20043;-82
2022/10/26 05:43:00;;;;;;;11.35;5.97;;;11.40;99.90;;;;;;5073978;28;20040;-83
2022/10/26 05:45:26;;;;;;;11.35;5.88;;;11.40;99.90;;;;;;5074904;28;20028;-84
2022/10/26 05:47:51;;;;;;;12.13;7.15;;;11.40;99.90;;;;;;5075856;28;20476;-82
2022/10/26 05:50:17;;;;;;;10.73;8.70;;;11.50;99.90;;;;;;5074729;28;20055;-83
2022/10/26 05:52:47;;;;;;;13.65;9.38;;;11.50;99.90;;;;;;5073955;28;20031;-83
2022/10/26 05:55:16;;;;;;;13.88;9.90;;;11.50;99.90;;;;;;5056020;28;20068;-84
2022/10/26 05:57:43;;;;;;;27.42;11.57;;;11.50;99.90;;;;;;5073254;28;20452;-84
2022/10/26 06:00:20;;;;;;;17.23;10.30;;;11.60;99.90;;;;;;5072516;28;20509;-83
2022/10/26 06:02:46;;;;;;;15.68;9.35;;;11.60;99.90;;;;;;5056234;28;20075;-83
2022/10/26 06:05:17;;;;;;;13.95;9.25;;;11.60;99.90;;;;;;5074177;28;20024;-83
2022/10/26 06:07:43;;;;;;;16.55;9.50;;;11.60;99.90;;;;;;5074401;28;20056;-83
2022/10/26 06:10:11;;;;;;;15.05;9.73;;;11.70;99.90;;;;;;5073513;28;20637;-83
2022/10/26 06:12:36;;;;;;;15.07;8.98;;;11.70;99.90;;;;;;5073730;28;20473;-83
2022/10/26 06:15:03;;;;;;;14.50;9.15;;;11.70;99.90;;;;;;5073054;28;20036;-83
2022/10/26 06:17:52;;;;;;;14.45;9.43;;;11.80;99.90;;;;;;5074028;28;20051;-84
2022/10/26 06:20:43;;;;;;;19.35;11.10;;;11.80;99.90;;;;;;5073472;28;20032;-85
2022/10/26 06:23:29;;;;;;;16.15;12.02;;;11.90;99.90;;;;;;5065773;28;20048;-84
2022/10/26 06:26:23;;;;;;;19.40;11.75;;;11.90;99.90;;;;;;5054952;28;20481;-83
2022/10/26 06:29:12;;;;;;;18.42;12.27;;;11.90;99.90;;;;;;5054706;28;20029;-85
2022/10/26 06:31:38;;;;;;;20.40;13.23;;;11.90;99.90;;;;;;5041981;28;20044;-84
2022/10/26 06:34:03;;;;;;;19.17;12.38;;;12.00;99.90;;;;;;5072792;28;20025;-84
2022/10/26 06:36:30;;;;;;;16.70;11.60;;;12.00;99.90;;;;;;5072902;28;20079;-86
2022/10/26 06:39:04;;;;;;;21.80;11.30;;;12.00;99.90;;;;;;5072546;28;20607;-84
2022/10/26 06:41:34;;;;;;;14.65;10.75;;;12.10;99.90;;;;;;5073079;28;20343;-85
2022/10/26 06:44:01;;;;;;;17.63;11.50;;;12.20;99.90;;;;;;5072552;28;20017;-83
2022/10/26 06:46:56;;;;;;;15.40;11.05;;;12.20;99.90;;;;;;5086597;28;20302;-84
2022/10/26 06:49:36;;;;;;;18.75;12.48;;;12.20;99.90;;;;;;5062152;28;20115;-84
2022/10/26 06:52:07;;;;;;;19.65;11.48;;;12.20;99.90;;;;;;5093000;28;20059;-84
2022/10/26 06:54:59;;;;;;;14.98;11.30;;;12.20;99.90;;;;;;5093637;28;20024;-84
2022/10/26 06:57:32;;;;;;;17.05;10.63;;;12.30;99.90;;;;;;5089795;28;20055;-84
2022/10/26 07:00:01;;;;;;;16.10;12.02;;;12.30;99.90;;;;;;5092920;28;20544;-83
2022/10/26 07:02:27;;;;;;;19.83;12.38;;;12.30;99.90;;;;;;5093358;28;20043;-84
2022/10/26 07:04:53;;;;;;;20.95;13.00;;;12.30;99.90;;;;;;5093121;28;20107;-82
2022/10/26 07:07:28;;;;;;;25.80;13.48;;;12.30;99.90;;;;;;5075499;28;20119;-82
2022/10/26 07:09:56;;;;;;;23.55;13.98;;;12.30;99.90;;;;;;5093926;28;20026;-81
2022/10/26 07:12:22;;;;;;;22.05;13.60;;;12.20;99.90;;;;;;5100031;28;20024;-84
2022/10/26 07:14:47;;;;;;;24.88;14.25;;;12.20;99.90;;;;;;5104537;28;20396;-85
2022/10/26 07:17:13;;;;;;;24.60;13.98;;;12.30;99.90;;;;;;5093729;28;20045;-85
2022/10/26 07:19:43;;;;;;;29.55;13.73;;;12.30;99.90;;;;;;5085373;28;20115;-85
2022/10/26 07:22:09;;;;;;;25.60;13.65;;;12.20;99.90;;;;;;5065529;28;20021;-78
2022/10/26 07:24:35;;;;;;;28.92;14.18;;;12.20;99.90;;;;;;5078403;28;20491;-83
2022/10/26 07:27:00;;;;;;;27.50;14.43;;;12.30;99.90;;;;;;5079211;28;20029;-82
2022/10/26 07:29:26;;;;;;;31.33;14.27;;;12.30;99.90;;;;;;5076957;28;20040;-76
2022/10/26 07:31:52;;;;;;;33.55;14.57;;;12.20;99.90;;;;;;5059591;28;20078;-81
2022/10/26 07:34:18;;;;;;;31.05;14.55;;;12.30;99.90;;;;;;5076230;28;20067;-80
2022/10/26 07:36:44;;;;;;;33.03;14.32;;;12.30;99.90;;;;;;5073995;28;20094;-81
2022/10/26 07:39:09;;;;;;;31.70;14.27;;;12.30;99.90;;;;;;5073347;28;20025;-82
2022/10/26 07:41:36;;;;;;;38.75;14.98;;;12.40;99.90;;;;;;5074968;28;20068;-82
2022/10/26 07:44:02;;;;;;;33.55;14.90;;;12.40;99.90;;;;;;5075867;28;20519;-79
2022/10/26 07:46:27;;;;;;;37.70;16.10;;;12.50;99.90;;;;;;5076144;28;20081;-81
2022/10/26 07:48:53;;;;;;;29.90;14.25;;;12.50;99.90;;;;;;5058566;28;20111;-82
2022/10/26 07:51:19;;;;;;;38.00;17.38;;;12.50;99.90;;;;;;5077049;28;20017;-83
2022/10/26 07:53:45;;;;;;;44.10;18.13;;;12.60;99.90;;;;;;5057601;28;20449;-82
2022/10/26 07:56:12;;;;;;;47.05;18.38;;;12.60;99.90;;;;;;5058706;28;20052;-83
2022/10/26 07:58:38;;;;;;;40.63;16.60;;;12.70;99.90;;;;;;5074200;28;20032;-81
2022/10/26 08:01:09;;;;;;;45.22;17.70;;;12.70;99.90;;;;;;5074223;28;20074;-82
2022/10/26 08:03:35;;;;;;;51.17;18.83;;;12.80;99.90;;;;;;5075371;28;20119;-81
2022/10/26 08:06:03;;;;;;;47.47;19.70;;;12.80;99.90;;;;;;5064247;28;20036;-83
2022/10/26 08:08:28;;;;;;;52.65;19.52;;;12.90;99.90;;;;;;5066005;28;20033;-80
2022/10/26 08:10:54;;;;;;;52.35;19.38;;;12.90;99.90;;;;;;5072336;28;20107;-78
2022/10/26 08:13:20;;;;;;;46.53;19.55;;;12.90;99.90;;;;;;5071820;28;20025;-81
2022/10/26 08:15:46;;;;;;;44.50;17.73;;;12.80;99.90;;;;;;5072060;28;20476;-81
2022/10/26 08:18:12;;;;;;;47.25;17.90;;;12.80;99.90;;;;;;5071683;28;20036;-80
2022/10/26 08:20:38;;;;;;;48.83;19.23;;;12.90;99.90;;;;;;5072531;28;20025;-80
2022/10/26 08:23:05;;;;;;;38.75;16.30;;;12.80;99.90;;;;;;5073458;28;20032;-76
2022/10/26 08:25:31;;;;;;;37.92;16.60;;;12.80;99.90;;;;;;5075326;28;20039;-72
2022/10/26 08:28:01;;;;;;;34.95;16.40;;;12.80;99.90;;;;;;5075271;28;20024;-77
2022/10/26 08:30:28;;;;;;;33.08;15.50;;;12.90;99.90;;;;;;5075207;28;20107;-75
2022/10/26 08:32:58;;;;;;;26.00;13.75;;;12.90;99.90;;;;;;5075179;28;20111;-74
2022/10/26 08:35:24;;;;;;;25.17;13.45;;;12.80;99.90;;;;;;5074626;28;20016;-76
2022/10/26 08:37:51;;;;;;;26.52;14.95;;;12.90;99.90;;;;;;5074867;28;20566;-76
2022/10/26 08:40:21;;;;;;;27.98;13.90;;;12.90;99.90;;;;;;5074280;28;20115;-75
2022/10/26 08:42:51;;;;;;;26.98;14.25;;;12.90;99.90;;;;;;5074876;28;20067;-80
2022/10/26 08:45:34;;;;;;;27.00;13.68;;;12.90;99.90;;;;;;5091392;28;20078;-76
2022/10/26 08:48:05;;;;;;;27.25;14.13;;;12.90;99.90;;;;;;5071233;28;20036;-74
2022/10/26 08:50:36;;;;;;;32.10;15.07;;;12.90;99.90;;;;;;5056675;28;20024;-75
2022/10/26 08:53:07;;;;;;;27.55;13.60;;;12.90;99.90;;;;;;5056614;28;20044;-75
2022/10/26 08:55:42;;;;;;;;;;;12.90;99.90;;;;;;5057324;28;20029;-76
2022/10/26 08:58:16;;;;;;;26.13;14.30;;;12.90;99.90;;;;;;5054120;28;19917;-74
2022/10/26 09:00:43;;;;;;;25.10;13.38;;;12.90;99.90;;;;;;5053473;28;20389;-75
2022/10/26 09:03:16;;;;;;;21.20;12.40;;;13.00;99.90;;;;;;5048301;28;20368;-76
2022/10/26 09:05:45;;;;;;;26.05;13.70;;;13.00;99.90;;;;;;5043667;28;20034;-76
2022/10/26 09:08:17;;;;;;;24.30;12.63;;;13.10;99.90;;;;;;5043474;28;20067;-77
2022/10/26 09:11:13;;;;;;;25.08;13.02;;;13.00;99.90;;;;;;5060764;28;20368;-77
2022/10/26 09:13:47;;;;;;;26.17;13.50;;;13.00;99.90;;;;;;5050569;28;20029;-79
2022/10/26 09:16:16;;;;;;;24.27;11.80;;;13.10;99.90;;;;;;5048969;28;20029;-75
2022/10/26 09:19:07;;;;;;;27.55;14.20;;;13.10;99.90;;;;;;5062281;28;20032;-74
2022/10/26 09:21:38;;;;;;;;;;;13.10;99.90;;;;;;5039441;28;20025;-74
2022/10/26 09:24:29;;;;;;;32.35;15.13;;;13.10;99.90;;;;;;5046516;28;19904;-73
2022/10/26 09:27:04;;;;;;;28.90;15.35;;;13.10;99.90;;;;;;5062479;28;20075;-74
2022/10/26 09:29:37;;;;;;;29.08;15.77;;;13.20;99.90;;;;;;5048394;28;20039;-74
2022/10/26 09:32:05;;;;;;;25.70;13.25;;;13.10;99.90;;;;;;5054898;28;20036;-76
2022/10/26 09:34:38;;;;;;;30.67;14.75;;;13.20;99.90;;;;;;5054560;28;20070;-74
2022/10/26 09:37:26;;;;;;;33.63;15.95;;;13.20;99.90;;;;;;5052558;28;20032;-74
2022/10/26 09:39:55;;;;;;;31.80;16.52;;;13.20;99.90;;;;;;5053575;28;20428;-73
2022/10/26 09:42:34;;;;;;;29.83;16.75;;;13.20;99.90;;;;;;5051038;28;20075;-74
2022/10/26 09:45:05;;;;;;;31.15;17.00;;;13.20;99.90;;;;;;5050057;28;20116;-74
2022/10/26 09:47:39;;;;;;;35.33;18.38;;;13.20;99.90;;;;;;5064668;28;20047;-74
2022/10/26 09:50:26;;;;;;;37.85;19.38;;;13.30;99.90;;;;;;5056477;28;20083;-74
2022/10/26 09:52:51;;;;;;;33.63;17.73;;;13.30;99.90;;;;;;5053229;28;20044;-75
2022/10/26 09:55:19;;;;;;;36.75;19.67;;;13.30;99.90;;;;;;5052823;28;20029;-78
2022/10/26 09:57:47;;;;;;;34.63;19.90;;;13.40;99.90;;;;;;5080427;28;20059;-85
2022/10/26 10:00:15;;;;;;;38.70;22.98;;;13.40;99.90;;;;;;5093198;28;20484;-84
2022/10/26 10:02:43;;;;;;;38.03;21.60;;;13.40;99.90;;;;;;5092630;28;20020;-85
2022/10/26 10:05:26;;;;;;;38.65;22.73;;;13.50;99.90;;;;;;5092946;28;20054;-84
2022/10/26 10:08:10;;;;;;;33.42;19.77;;;13.50;99.90;;;;;;5094647;28;20028;-84
2022/10/26 10:10:36;;;;;;;34.25;19.60;;;13.60;99.90;;;;;;5092887;28;20055;-84
2022/10/26 10:13:21;;;;;;;33.35;17.65;;;13.60;99.90;;;;;;5092449;28;20032;-81
2022/10/26 10:16:01;;;;;;;38.22;20.98;;;13.60;99.90;;;;;;5092179;28;20024;-82
2022/10/26 10:18:26;;;;;;;32.67;19.00;;;13.60;99.90;;;;;;5108397;28;20382;-84
2022/10/26 10:20:57;;;;;;;36.38;20.63;;;13.60;99.90;;;;;;5114038;28;20106;-84
2022/10/26 10:23:27;;;;;;;34.35;20.10;;;13.60;99.90;;;;;;5113889;28;20098;-83
2022/10/26 10:26:06;;;;;;;37.83;21.60;;;13.60;99.90;;;;;;5115164;28;20035;-84
2022/10/26 10:28:32;;;;;;;37.03;19.75;;;13.60;99.90;;;;;;5114711;28;20063;-83
2022/10/26 10:31:01;;;;;;;37.40;20.65;;;13.60;99.90;;;;;;5114266;28;20039;-82
2022/10/26 10:33:40;;;;;;;33.33;21.17;;;13.60;99.90;;;;;;5113755;28;20526;-74
2022/10/26 10:36:10;;;;;;;31.38;19.08;;;13.60;99.90;;;;;;5094428;28;20123;-76
2022/10/26 10:38:38;;;;;;;32.28;19.65;;;13.60;99.90;;;;;;5110192;28;20054;-77
2022/10/26 10:41:04;;;;;;;38.78;19.80;;;13.70;99.90;;;;;;5113108;28;20102;-77
2022/10/26 10:43:30;;;;;;;32.28;20.10;;;13.70;99.90;;;;;;5113589;28;20027;-77
2022/10/26 10:45:58;;;;;;;35.00;20.95;;;13.70;99.90;;;;;;5112962;28;20031;-77
2022/10/26 10:48:29;;;;;;;41.75;23.42;;;13.80;99.90;;;;;;5113049;28;20088;-76
2022/10/26 10:50:59;;;;;;;38.47;21.95;;;13.70;99.90;;;;;;5113465;28;20413;-77
2022/10/26 10:53:25;;;;;;;33.92;21.20;;;13.80;99.90;;;;;;5112969;28;20023;-76
2022/10/26 10:56:12;;;;;;;40.67;23.20;;;13.80;99.90;;;;;;5093021;28;20407;-76
2022/10/26 10:58:47;;;;;;;37.90;21.33;;;13.80;99.90;;;;;;5073032;28;20037;-77
2022/10/26 11:01:19;;;;;;;38.97;21.65;;;13.90;99.90;;;;;;5072169;28;20024;-77
2022/10/26 11:04:14;;;;;;;39.20;22.58;;;13.90;99.90;;;;;;5073002;28;20017;-76
2022/10/26 11:06:42;;;;;;;36.72;21.20;;;13.90;99.90;;;;;;5053960;28;20032;-77
2022/10/26 11:09:17;;;;;;;38.55;21.63;;;13.90;99.90;;;;;;5072722;28;20129;-77
2022/10/26 11:11:53;;;;;;;38.95;23.48;;;13.90;99.90;;;;;;5082467;28;20035;-77
2022/10/26 11:14:30;;;;;;;42.08;23.58;;;14.00;99.90;;;;;;5101246;28;20031;-77
2022/10/26 11:17:03;;;;;;;43.25;24.35;;;14.00;99.90;;;;;;5109506;28;20020;-77
2022/10/26 11:19:46;;;;;;;44.90;25.77;;;14.00;99.90;;;;;;5092051;28;20032;-78
2022/10/26 11:22:24;;;;;;;45.33;26.08;;;14.00;99.90;;;;;;5092353;28;20093;-79
2022/10/26 11:24:53;;;;;;;46.65;26.35;;;14.10;99.90;;;;;;5074990;28;20028;-78
2022/10/26 11:27:44;;;;;;;45.95;25.55;;;14.10;99.90;;;;;;5092282;28;20045;-76
2022/10/26 11:30:32;;;;;;;40.47;26.15;;;14.10;99.90;;;;;;5092130;28;20028;-78
2022/10/26 11:33:07;;;;;;;47.25;25.23;;;14.20;99.90;;;;;;5090224;28;20032;-79
2022/10/26 11:35:41;;;;;;;44.97;26.00;;;14.20;99.90;;;;;;5092215;28;20064;-77
2022/10/26 11:38:22;;;;;;;42.88;24.92;;;14.20;99.90;;;;;;5092924;28;20039;-80
2022/10/26 11:41:30;;;;;;;50.03;28.45;;;14.30;99.90;;;;;;5092336;28;20481;-78
2022/10/26 11:44:08;;;;;;;55.55;29.13;;;14.30;99.90;;;;;;5092164;28;20477;-78
2022/10/26 11:46:46;;;;;;;48.92;28.95;;;14.30;99.90;;;;;;5091956;28;20480;-77
2022/10/26 11:49:26;;;;;;;53.65;28.73;;;14.40;99.90;;;;;;5091908;28;20388;-76
2022/10/26 11:52:07;;;;;;;47.08;28.27;;;14.40;99.90;;;;;;5093182;28;20017;-86
2022/10/26 11:55:03;;;;;;;46.15;27.27;;;14.50;99.90;;;;;;5093624;28;20032;-81
2022/10/26 11:57:35;;;;;;;48.55;28.20;;;14.50;99.90;;;;;;5078873;28;20086;-83
2022/10/26 12:00:05;;;;;;;49.83;29.05;;;14.50;99.90;;;;;;5103792;28;20496;-83
2022/10/26 12:02:39;;;;;;;50.75;27.70;;;14.50;99.90;;;;;;5095985;28;20024;-81
2022/10/26 12:05:14;;;;;;;47.50;28.17;;;14.50;99.90;;;;;;5096372;28;20093;-81
2022/10/26 12:07:42;;;;;;;48.75;27.60;;;14.60;99.90;;;;;;5095102;28;20031;-81
2022/10/26 12:10:22;;;;;;;45.83;27.02;;;14.60;99.90;;;;;;5094222;28;20077;-76
2022/10/26 12:12:54;;;;;;;41.67;26.27;;;14.70;99.90;;;;;;5092290;28;20464;-78
2022/10/26 12:15:35;;;;;;;45.10;27.80;;;14.70;99.90;;;;;;5093736;28;20024;-78
2022/10/26 12:18:31;;;;;;;48.92;27.75;;;14.70;99.90;;;;;;5094196;28;20024;-79
2022/10/26 12:21:03;;;;;;;48.67;28.50;;;14.80;99.90;;;;;;5093658;28;20044;-78
2022/10/26 12:23:56;;;;;;;56.88;28.90;;;14.80;99.90;;;;;;5091808;28;20378;-78
2022/10/26 12:26:24;;;;;;;55.15;29.85;;;14.70;99.90;;;;;;5054520;28;20036;-78
2022/10/26 12:29:02;;;;;;;54.45;28.67;;;14.70;99.90;;;;;;5093931;28;20020;-79
2022/10/26 12:31:37;;;;;;;61.90;30.80;;;14.80;99.90;;;;;;5091551;28;20023;-78
2022/10/26 12:34:04;;;;;;;56.40;30.98;;;14.80;99.90;;;;;;5094212;28;20097;-78
2022/10/26 12:36:55;;;;;;;69.50;33.80;;;14.80;99.90;;;;;;5093481;28;20214;-79
2022/10/26 12:39:37;;;;;;;64.47;31.60;;;14.80;99.90;;;;;;5093208;28;20253;-79
2022/10/26 12:42:28;;;;;;;60.72;32.00;;;14.80;99.90;;;;;;5093940;28;20472;-78
2022/10/26 12:44:53;;;;;;;64.75;30.42;;;14.80;99.90;;;;;;5092696;28;20024;-78
2022/10/26 12:47:31;;;;;;;61.28;31.50;;;14.80;99.90;;;;;;5075365;28;20453;-78
2022/10/26 12:50:05;;;;;;;56.80;28.95;;;14.80;99.90;;;;;;5093840;28;20365;-79
2022/10/26 12:52:55;;;;;;;50.15;27.98;;;14.80;99.90;;;;;;5091565;28;20016;-76
2022/10/26 12:55:32;;;;;;;51.40;27.90;;;14.80;99.90;;;;;;5092880;28;20016;-78
2022/10/26 12:58:17;;;;;;;52.45;26.85;;;14.80;99.90;;;;;;5093448;28;20498;-77
2022/10/26 13:01:07;;;;;;;49.35;25.80;;;14.80;99.90;;;;;;5093675;28;20027;-76